sensor_id;sensor_type;location;lat;lon;timestamp;temperature;humidity
13892;DHT22;7016;48.172;8.058;2022-11-06T00:00:56;5.80;99.90
13892;DHT22;7016;48.172;8.058;2022-11-06T00:03:22;5.90;99.90
13892;DHT22;7016;48.172;8.058;2022-11-06T00:05:48;5.90;99.90
13892;DHT22;7016;48.172;8.058;2022-11-06T00:08:35;5.90;99.90
13892;DHT22;7016;48.172;8.058;2022-11-06T00:11:10;5.70;99.90
13892;DHT22;7016;48.172;8.058;2022-11-06T00:13:37;5.60;99.90
13892;DHT22;7016;48.172;8.058;2022-11-06T00:16:04;5.50;99.90
13892;DHT22;7016;48.172;8.058;2022-11-06T00:18:31;5.50;99.90
13892;DHT22;7016;48.172;8.058;2022-11-06T00:20:57;5.20;99.90
13892;DHT22;7016;48.172;8.058;2022-11-06T00:23:22;5.30;99.90
13892;DHT22;7016;48.172;8.058;2022-11-06T00:25:48;5.40;99.90
13892;DHT22;7016;48.172;8.058;2022-11-06T00:28:18;5.50;99.90
13892;DHT22;7016;48.172;8.058;2022-11-06T00:30:44;5.50;99.90
13892;DHT22;7016;48.172;8.058;2022-11-06T00:33:09;5.60;99.90
13892;DHT22;7016;48.172;8.058;2022-11-06T00:35:37;5.60;99.90
13892;DHT22;7016;48.172;8.058;2022-11-06T00:38:04;5.50;99.90
13892;DHT22;7016;48.172;8.058;2022-11-06T00:40:30;5.50;99.90
13892;DHT22;7016;48.172;8.058;2022-11-06T00:42:56;5.40;99.90
13892;DHT22;7016;48.172;8.058;2022-11-06T00:45:23;5.50;99.90
13892;DHT22;7016;48.172;8.058;2022-11-06T00:47:49;5.40;99.90
13892;DHT22;7016;48.172;8.058;2022-11-06T00:50:15;5.30;99.90
13892;DHT22;7016;48.172;8.058;2022-11-06T00:52:43;5.30;99.90
13892;DHT22;7016;48.172;8.058;2022-11-06T00:55:09;4.80;99.90
13892;DHT22;7016;48.172;8.058;2022-11-06T00:57:35;5.20;99.90
13892;DHT22;7016;48.172;8.058;2022-11-06T01:00:00;5.20;99.90
13892;DHT22;7016;48.172;8.058;2022-11-06T01:02:26;5.20;99.90
13892;DHT22;7016;48.172;8.058;2022-11-06T01:04:52;5.20;99.90
13892;DHT22;7016;48.172;8.058;2022-11-06T01:07:18;5.30;99.90
13892;DHT22;7016;48.172;8.058;2022-11-06T01:09:44;5.30;99.90
13892;DHT22;7016;48.172;8.058;2022-11-06T01:12:09;5.30;99.90
13892;DHT22;7016;48.172;8.058;2022-11-06T01:14:38;5.30;99.90
13892;DHT22;7016;48.172;8.058;2022-11-06T01:17:03;5.20;99.90
13892;DHT22;7016;48.172;8.058;2022-11-06T01:19:29;5.20;99.90
13892;DHT22;7016;48.172;8.058;2022-11-06T01:21:55;5.10;99.90
13892;DHT22;7016;48.172;8.058;2022-11-06T01:24:23;5.00;99.90
13892;DHT22;7016;48.172;8.058;2022-11-06T01:26:50;5.00;99.90
13892;DHT22;7016;48.172;8.058;2022-11-06T01:29:17;5.00;99.90
13892;DHT22;7016;48.172;8.058;2022-11-06T01:31:44;5.10;99.90
13892;DHT22;7016;48.172;8.058;2022-11-06T01:34:11;5.00;99.90
13892;DHT22;7016;48.172;8.058;2022-11-06T01:36:37;5.00;99.90
13892;DHT22;7016;48.172;8.058;2022-11-06T01:39:05;5.00;99.90
13892;DHT22;7016;48.172;8.058;2022-11-06T01:41:37;5.00;99.90
13892;DHT22;7016;48.172;8.058;2022-11-06T01:46:49;5.00;99.90
13892;DHT22;7016;48.172;8.058;2022-11-06T01:49:16;5.10;99.90
13892;DHT22;7016;48.172;8.058;2022-11-06T01:51:55;5.10;99.90
13892;DHT22;7016;48.172;8.058;2022-11-06T01:54:24;5.10;99.90
13892;DHT22;7016;48.172;8.058;2022-11-06T01:56:55;5.10;99.90
13892;DHT22;7016;48.172;8.058;2022-11-06T01:59:24;5.00;99.90
13892;DHT22;7016;48.172;8.058;2022-11-06T02:01:51;5.00;99.90
13892;DHT22;7016;48.172;8.058;2022-11-06T02:04:21;5.00;99.90
13892;DHT22;7016;48.172;8.058;2022-11-06T02:06:48;5.00;99.90
13892;DHT22;7016;48.172;8.058;2022-11-06T02:09:14;5.00;99.90
13892;DHT22;7016;48.172;8.058;2022-11-06T02:11:43;5.00;99.90
13892;DHT22;7016;48.172;8.058;2022-11-06T02:14:30;5.00;99.90
13892;DHT22;7016;48.172;8.058;2022-11-06T02:17:31;4.90;99.90
13892;DHT22;7016;48.172;8.058;2022-11-06T02:25:45;4.70;99.90
13892;DHT22;7016;48.172;8.058;2022-11-06T02:31:04;4.70;99.90
13892;DHT22;7016;48.172;8.058;2022-11-06T02:33:41;4.90;99.90
13892;DHT22;7016;48.172;8.058;2022-11-06T02:36:11;4.60;99.90
13892;DHT22;7016;48.172;8.058;2022-11-06T02:38:42;4.80;99.90
13892;DHT22;7016;48.172;8.058;2022-11-06T02:41:21;4.70;99.90
13892;DHT22;7016;48.172;8.058;2022-11-06T02:43:52;4.80;99.90
13892;DHT22;7016;48.172;8.058;2022-11-06T02:46:33;4.90;99.90
13892;DHT22;7016;48.172;8.058;2022-11-06T02:49:15;4.80;99.90
13892;DHT22;7016;48.172;8.058;2022-11-06T02:51:47;4.70;99.90
13892;DHT22;7016;48.172;8.058;2022-11-06T02:54:15;4.60;99.90
13892;DHT22;7016;48.172;8.058;2022-11-06T02:56:44;4.60;99.90
13892;DHT22;7016;48.172;8.058;2022-11-06T03:01:52;4.60;99.90
13892;DHT22;7016;48.172;8.058;2022-11-06T03:04:25;4.60;99.90
13892;DHT22;7016;48.172;8.058;2022-11-06T03:06:58;4.50;99.90
13892;DHT22;7016;48.172;8.058;2022-11-06T03:09:31;4.60;99.90
13892;DHT22;7016;48.172;8.058;2022-11-06T03:13:13;4.50;99.90
13892;DHT22;7016;48.172;8.058;2022-11-06T03:15:27;4.50;99.90
13892;DHT22;7016;48.172;8.058;2022-11-06T03:18:37;4.50;99.90
13892;DHT22;7016;48.172;8.058;2022-11-06T03:21:42;4.40;99.90
13892;DHT22;7016;48.172;8.058;2022-11-06T03:24:13;4.40;99.90
13892;DHT22;7016;48.172;8.058;2022-11-06T03:26:48;4.50;99.90
13892;DHT22;7016;48.172;8.058;2022-11-06T03:29:33;4.50;99.90
13892;DHT22;7016;48.172;8.058;2022-11-06T03:32:09;4.50;99.90
13892;DHT22;7016;48.172;8.058;2022-11-06T03:34:47;4.50;99.90
13892;DHT22;7016;48.172;8.058;2022-11-06T03:37:27;4.50;99.90
13892;DHT22;7016;48.172;8.058;2022-11-06T03:39:57;4.50;99.90
13892;DHT22;7016;48.172;8.058;2022-11-06T03:42:29;4.40;99.90
13892;DHT22;7016;48.172;8.058;2022-11-06T03:44:59;4.30;99.90
13892;DHT22;7016;48.172;8.058;2022-11-06T03:47:39;4.40;99.90
13892;DHT22;7016;48.172;8.058;2022-11-06T03:52:41;4.50;99.90
13892;DHT22;7016;48.172;8.058;2022-11-06T03:55:15;4.50;99.90
13892;DHT22;7016;48.172;8.058;2022-11-06T03:58:13;4.50;99.90
13892;DHT22;7016;48.172;8.058;2022-11-06T04:00:42;4.40;99.90
13892;DHT22;7016;48.172;8.058;2022-11-06T04:03:22;4.40;99.90
13892;DHT22;7016;48.172;8.058;2022-11-06T04:05:57;4.30;99.90
13892;DHT22;7016;48.172;8.058;2022-11-06T04:08:26;4.20;99.90
13892;DHT22;7016;48.172;8.058;2022-11-06T04:11:16;4.30;99.90
13892;DHT22;7016;48.172;8.058;2022-11-06T04:14:03;4.30;99.90
13892;DHT22;7016;48.172;8.058;2022-11-06T04:16:40;4.30;99.90
13892;DHT22;7016;48.172;8.058;2022-11-06T04:19:15;4.40;99.90
13892;DHT22;7016;48.172;8.058;2022-11-06T04:27:55;4.40;99.90
13892;DHT22;7016;48.172;8.058;2022-11-06T04:30:23;4.40;99.90
13892;DHT22;7016;48.172;8.058;2022-11-06T04:39:27;4.20;99.90
13892;DHT22;7016;48.172;8.058;2022-11-06T04:44:28;4.10;99.90
13892;DHT22;7016;48.172;8.058;2022-11-06T04:47:02;4.00;99.90
13892;DHT22;7016;48.172;8.058;2022-11-06T04:49:31;3.90;99.90
13892;DHT22;7016;48.172;8.058;2022-11-06T04:51:59;3.90;99.90
13892;DHT22;7016;48.172;8.058;2022-11-06T04:54:27;4.00;99.90
13892;DHT22;7016;48.172;8.058;2022-11-06T04:56:57;4.00;99.90
13892;DHT22;7016;48.172;8.058;2022-11-06T04:59:25;4.00;99.90
13892;DHT22;7016;48.172;8.058;2022-11-06T05:01:51;4.00;99.90
13892;DHT22;7016;48.172;8.058;2022-11-06T05:04:17;4.00;99.90
13892;DHT22;7016;48.172;8.058;2022-11-06T05:06:43;4.00;99.90
13892;DHT22;7016;48.172;8.058;2022-11-06T05:09:09;4.00;99.90
13892;DHT22;7016;48.172;8.058;2022-11-06T05:11:34;4.00;99.90
13892;DHT22;7016;48.172;8.058;2022-11-06T05:14:00;3.90;99.90
13892;DHT22;7016;48.172;8.058;2022-11-06T05:16:26;3.90;99.90
13892;DHT22;7016;48.172;8.058;2022-11-06T05:18:51;3.90;99.90
13892;DHT22;7016;48.172;8.058;2022-11-06T05:21:17;3.90;99.90
13892;DHT22;7016;48.172;8.058;2022-11-06T05:24:02;4.00;99.90
13892;DHT22;7016;48.172;8.058;2022-11-06T05:26:28;4.00;99.90
13892;DHT22;7016;48.172;8.058;2022-11-06T05:28:53;3.90;99.90
13892;DHT22;7016;48.172;8.058;2022-11-06T05:31:19;3.90;99.90
13892;DHT22;7016;48.172;8.058;2022-11-06T05:33:45;3.90;99.90
13892;DHT22;7016;48.172;8.058;2022-11-06T05:36:10;3.90;99.90
13892;DHT22;7016;48.172;8.058;2022-11-06T05:38:36;3.70;99.90
13892;DHT22;7016;48.172;8.058;2022-11-06T05:41:02;3.70;99.90
13892;DHT22;7016;48.172;8.058;2022-11-06T05:43:28;3.60;99.90
13892;DHT22;7016;48.172;8.058;2022-11-06T05:45:54;3.70;99.90
13892;DHT22;7016;48.172;8.058;2022-11-06T05:48:19;3.70;99.90
13892;DHT22;7016;48.172;8.058;2022-11-06T05:50:46;3.70;99.90
13892;DHT22;7016;48.172;8.058;2022-11-06T05:53:11;3.70;99.90
13892;DHT22;7016;48.172;8.058;2022-11-06T05:55:38;3.70;99.90
13892;DHT22;7016;48.172;8.058;2022-11-06T05:58:03;3.70;99.90
13892;DHT22;7016;48.172;8.058;2022-11-06T06:00:29;3.70;99.90
13892;DHT22;7016;48.172;8.058;2022-11-06T06:02:55;3.70;99.90
13892;DHT22;7016;48.172;8.058;2022-11-06T06:05:21;3.70;99.90
13892;DHT22;7016;48.172;8.058;2022-11-06T06:07:46;3.70;99.90
13892;DHT22;7016;48.172;8.058;2022-11-06T06:10:12;3.70;99.90
13892;DHT22;7016;48.172;8.058;2022-11-06T06:12:38;3.70;99.90
13892;DHT22;7016;48.172;8.058;2022-11-06T06:15:05;3.70;99.90
13892;DHT22;7016;48.172;8.058;2022-11-06T06:17:31;3.90;99.90
13892;DHT22;7016;48.172;8.058;2022-11-06T06:19:57;3.50;99.90
13892;DHT22;7016;48.172;8.058;2022-11-06T06:22:23;3.40;99.90
13892;DHT22;7016;48.172;8.058;2022-11-06T06:24:49;3.40;99.90
13892;DHT22;7016;48.172;8.058;2022-11-06T06:27:16;3.50;99.90
13892;DHT22;7016;48.172;8.058;2022-11-06T06:29:42;3.50;99.90
13892;DHT22;7016;48.172;8.058;2022-11-06T06:32:08;3.40;99.90
13892;DHT22;7016;48.172;8.058;2022-11-06T06:34:34;3.40;99.90
13892;DHT22;7016;48.172;8.058;2022-11-06T06:36:59;3.40;99.90
13892;DHT22;7016;48.172;8.058;2022-11-06T06:39:25;3.50;99.90
13892;DHT22;7016;48.172;8.058;2022-11-06T06:41:51;3.50;99.90
13892;DHT22;7016;48.172;8.058;2022-11-06T06:44:16;3.50;99.90
13892;DHT22;7016;48.172;8.058;2022-11-06T06:46:42;3.50;99.90
13892;DHT22;7016;48.172;8.058;2022-11-06T06:49:08;3.60;99.90
13892;DHT22;7016;48.172;8.058;2022-11-06T06:51:33;3.50;99.90
13892;DHT22;7016;48.172;8.058;2022-11-06T06:53:59;3.50;99.90
13892;DHT22;7016;48.172;8.058;2022-11-06T06:56:25;3.50;99.90
13892;DHT22;7016;48.172;8.058;2022-11-06T06:58:54;3.60;99.90
13892;DHT22;7016;48.172;8.058;2022-11-06T07:01:20;3.70;99.90
13892;DHT22;7016;48.172;8.058;2022-11-06T07:03:45;3.80;99.90
13892;DHT22;7016;48.172;8.058;2022-11-06T07:06:11;3.80;99.90
13892;DHT22;7016;48.172;8.058;2022-11-06T07:08:37;3.80;99.90
13892;DHT22;7016;48.172;8.058;2022-11-06T07:11:06;3.80;99.90
13892;DHT22;7016;48.172;8.058;2022-11-06T07:13:32;3.80;99.90
13892;DHT22;7016;48.172;8.058;2022-11-06T07:15:57;3.80;99.90
13892;DHT22;7016;48.172;8.058;2022-11-06T07:18:23;3.80;99.90
13892;DHT22;7016;48.172;8.058;2022-11-06T07:20:50;3.90;99.90
13892;DHT22;7016;48.172;8.058;2022-11-06T07:23:16;3.90;99.90
13892;DHT22;7016;48.172;8.058;2022-11-06T07:25:42;3.90;99.90
13892;DHT22;7016;48.172;8.058;2022-11-06T07:28:08;3.90;99.90
13892;DHT22;7016;48.172;8.058;2022-11-06T07:30:35;3.80;99.90
13892;DHT22;7016;48.172;8.058;2022-11-06T07:33:02;3.90;99.90
13892;DHT22;7016;48.172;8.058;2022-11-06T07:35:28;3.90;99.90
13892;DHT22;7016;48.172;8.058;2022-11-06T07:37:54;3.90;99.90
13892;DHT22;7016;48.172;8.058;2022-11-06T07:40:19;3.80;99.90
13892;DHT22;7016;48.172;8.058;2022-11-06T07:42:45;4.00;99.90
13892;DHT22;7016;48.172;8.058;2022-11-06T07:45:11;4.00;99.90
13892;DHT22;7016;48.172;8.058;2022-11-06T07:47:36;3.90;99.90
13892;DHT22;7016;48.172;8.058;2022-11-06T07:50:03;3.90;99.90
13892;DHT22;7016;48.172;8.058;2022-11-06T07:52:28;3.80;99.90
13892;DHT22;7016;48.172;8.058;2022-11-06T07:54:54;3.80;99.90
13892;DHT22;7016;48.172;8.058;2022-11-06T07:57:20;4.00;99.90
13892;DHT22;7016;48.172;8.058;2022-11-06T07:59:46;3.90;99.90
13892;DHT22;7016;48.172;8.058;2022-11-06T08:02:12;4.00;99.90
13892;DHT22;7016;48.172;8.058;2022-11-06T08:04:38;4.20;99.90
13892;DHT22;7016;48.172;8.058;2022-11-06T08:07:04;4.20;99.90
13892;DHT22;7016;48.172;8.058;2022-11-06T08:09:30;4.30;99.90
13892;DHT22;7016;48.172;8.058;2022-11-06T08:11:56;4.30;99.90
13892;DHT22;7016;48.172;8.058;2022-11-06T08:14:22;4.20;99.90
13892;DHT22;7016;48.172;8.058;2022-11-06T08:16:48;4.30;99.90
13892;DHT22;7016;48.172;8.058;2022-11-06T08:19:13;4.30;99.90
13892;DHT22;7016;48.172;8.058;2022-11-06T08:21:39;4.40;99.90
13892;DHT22;7016;48.172;8.058;2022-11-06T08:24:05;4.40;99.90
13892;DHT22;7016;48.172;8.058;2022-11-06T08:26:31;4.40;99.90
13892;DHT22;7016;48.172;8.058;2022-11-06T08:28:57;4.60;99.90
13892;DHT22;7016;48.172;8.058;2022-11-06T08:31:23;4.70;99.90
13892;DHT22;7016;48.172;8.058;2022-11-06T08:33:49;4.80;99.90
13892;DHT22;7016;48.172;8.058;2022-11-06T08:36:15;4.70;99.90
13892;DHT22;7016;48.172;8.058;2022-11-06T08:38:41;4.80;99.90
13892;DHT22;7016;48.172;8.058;2022-11-06T08:41:11;4.90;99.90
13892;DHT22;7016;48.172;8.058;2022-11-06T08:43:37;5.00;99.90
13892;DHT22;7016;48.172;8.058;2022-11-06T08:46:05;5.00;99.90
13892;DHT22;7016;48.172;8.058;2022-11-06T08:48:31;5.10;99.90
13892;DHT22;7016;48.172;8.058;2022-11-06T08:50:57;5.20;99.90
13892;DHT22;7016;48.172;8.058;2022-11-06T08:53:26;5.30;99.90
13892;DHT22;7016;48.172;8.058;2022-11-06T08:55:52;5.30;99.90
13892;DHT22;7016;48.172;8.058;2022-11-06T08:58:18;5.40;99.90
13892;DHT22;7016;48.172;8.058;2022-11-06T09:00:44;5.60;99.90
13892;DHT22;7016;48.172;8.058;2022-11-06T09:03:13;5.60;99.90
13892;DHT22;7016;48.172;8.058;2022-11-06T09:05:40;5.60;99.90
13892;DHT22;7016;48.172;8.058;2022-11-06T09:08:07;5.70;99.90
13892;DHT22;7016;48.172;8.058;2022-11-06T09:10:33;5.70;99.90
13892;DHT22;7016;48.172;8.058;2022-11-06T09:12:58;5.80;99.90
13892;DHT22;7016;48.172;8.058;2022-11-06T09:15:25;5.90;99.90
13892;DHT22;7016;48.172;8.058;2022-11-06T09:17:51;6.00;99.90
13892;DHT22;7016;48.172;8.058;2022-11-06T09:20:19;5.90;99.90
13892;DHT22;7016;48.172;8.058;2022-11-06T09:22:45;5.90;99.90
13892;DHT22;7016;48.172;8.058;2022-11-06T09:25:12;6.10;99.90
13892;DHT22;7016;48.172;8.058;2022-11-06T09:27:46;6.20;99.90
13892;DHT22;7016;48.172;8.058;2022-11-06T09:30:13;6.30;99.90
13892;DHT22;7016;48.172;8.058;2022-11-06T09:32:51;6.30;99.90
13892;DHT22;7016;48.172;8.058;2022-11-06T09:35:22;6.40;99.90
13892;DHT22;7016;48.172;8.058;2022-11-06T09:37:49;6.50;99.90
13892;DHT22;7016;48.172;8.058;2022-11-06T09:40:30;6.50;99.90
13892;DHT22;7016;48.172;8.058;2022-11-06T09:43:11;6.60;99.90
13892;DHT22;7016;48.172;8.058;2022-11-06T09:45:40;6.60;99.90
13892;DHT22;7016;48.172;8.058;2022-11-06T09:50:39;6.70;99.90
13892;DHT22;7016;48.172;8.058;2022-11-06T09:53:14;6.80;99.90
13892;DHT22;7016;48.172;8.058;2022-11-06T09:55:42;6.90;99.90
13892;DHT22;7016;48.172;8.058;2022-11-06T09:58:19;7.00;99.90
13892;DHT22;7016;48.172;8.058;2022-11-06T10:00:49;7.00;99.90
13892;DHT22;7016;48.172;8.058;2022-11-06T10:05:52;7.10;99.90
13892;DHT22;7016;48.172;8.058;2022-11-06T10:08:26;7.20;99.90
13892;DHT22;7016;48.172;8.058;2022-11-06T10:19:56;7.30;99.90
13892;DHT22;7016;48.172;8.058;2022-11-06T10:22:43;7.60;99.90
13892;DHT22;7016;48.172;8.058;2022-11-06T10:25:26;7.60;99.90
13892;DHT22;7016;48.172;8.058;2022-11-06T10:30:23;7.80;99.90
13892;DHT22;7016;48.172;8.058;2022-11-06T10:38:25;8.20;99.90
13892;DHT22;7016;48.172;8.058;2022-11-06T10:40:52;8.40;99.90
13892;DHT22;7016;48.172;8.058;2022-11-06T10:43:41;8.50;99.90
13892;DHT22;7016;48.172;8.058;2022-11-06T10:46:11;8.60;99.90
13892;DHT22;7016;48.172;8.058;2022-11-06T10:49:02;8.60;99.90
13892;DHT22;7016;48.172;8.058;2022-11-06T10:51:54;8.70;99.90
13892;DHT22;7016;48.172;8.058;2022-11-06T10:59:39;8.80;99.90
13892;DHT22;7016;48.172;8.058;2022-11-06T11:04:55;8.90;99.90
13892;DHT22;7016;48.172;8.058;2022-11-06T11:07:21;9.00;99.90
13892;DHT22;7016;48.172;8.058;2022-11-06T11:09:48;9.10;99.90
13892;DHT22;7016;48.172;8.058;2022-11-06T11:12:29;9.20;99.90
13892;DHT22;7016;48.172;8.058;2022-11-06T11:17:33;9.30;99.90
13892;DHT22;7016;48.172;8.058;2022-11-06T11:19:59;9.30;99.90
13892;DHT22;7016;48.172;8.058;2022-11-06T11:22:26;9.40;99.90
13892;DHT22;7016;48.172;8.058;2022-11-06T11:27:35;9.50;99.90
13892;DHT22;7016;48.172;8.058;2022-11-06T11:30:03;9.50;99.90
13892;DHT22;7016;48.172;8.058;2022-11-06T11:32:29;9.50;99.90
13892;DHT22;7016;48.172;8.058;2022-11-06T11:34:56;9.50;99.90
13892;DHT22;7016;48.172;8.058;2022-11-06T11:37:32;9.50;99.90
13892;DHT22;7016;48.172;8.058;2022-11-06T11:42:48;9.50;99.90
13892;DHT22;7016;48.172;8.058;2022-11-06T11:45:18;9.50;99.90
13892;DHT22;7016;48.172;8.058;2022-11-06T11:47:47;9.50;99.90
13892;DHT22;7016;48.172;8.058;2022-11-06T11:52:54;9.60;99.90
13892;DHT22;7016;48.172;8.058;2022-11-06T11:55:24;9.70;99.90
13892;DHT22;7016;48.172;8.058;2022-11-06T11:57:53;9.70;99.90
13892;DHT22;7016;48.172;8.058;2022-11-06T12:00:21;9.70;99.90
13892;DHT22;7016;48.172;8.058;2022-11-06T12:03:00;9.80;99.90
13892;DHT22;7016;48.172;8.058;2022-11-06T12:05:38;9.80;99.90
13892;DHT22;7016;48.172;8.058;2022-11-06T12:08:05;9.80;99.90
13892;DHT22;7016;48.172;8.058;2022-11-06T12:10:39;9.90;99.90
13892;DHT22;7016;48.172;8.058;2022-11-06T12:13:14;9.90;99.90
13892;DHT22;7016;48.172;8.058;2022-11-06T12:16:16;10.00;99.90
13892;DHT22;7016;48.172;8.058;2022-11-06T12:18:54;10.00;99.90
13892;DHT22;7016;48.172;8.058;2022-11-06T12:21:27;10.00;99.90
13892;DHT22;7016;48.172;8.058;2022-11-06T12:24:04;10.00;99.90
13892;DHT22;7016;48.172;8.058;2022-11-06T12:29:14;10.10;99.90
13892;DHT22;7016;48.172;8.058;2022-11-06T13:00:13;10.00;99.90
13892;DHT22;7016;48.172;8.058;2022-11-06T13:02:52;10.10;99.90
13892;DHT22;7016;48.172;8.058;2022-11-06T13:05:32;10.00;99.90
13892;DHT22;7016;48.172;8.058;2022-11-06T13:14:07;9.80;99.90
13892;DHT22;7016;48.172;8.058;2022-11-06T13:19:13;9.70;99.90
13892;DHT22;7016;48.172;8.058;2022-11-06T13:25:00;9.80;99.90
13892;DHT22;7016;48.172;8.058;2022-11-06T13:32:44;9.60;99.90
13892;DHT22;7016;48.172;8.058;2022-11-06T13:35:16;9.60;99.90
13892;DHT22;7016;48.172;8.058;2022-11-06T13:37:46;9.60;99.90
13892;DHT22;7016;48.172;8.058;2022-11-06T13:40:17;9.50;99.90
13892;DHT22;7016;48.172;8.058;2022-11-06T13:43:01;9.80;99.90
13892;DHT22;7016;48.172;8.058;2022-11-06T13:45:41;9.70;99.90
13892;DHT22;7016;48.172;8.058;2022-11-06T13:50:52;10.10;99.90
13892;DHT22;7016;48.172;8.058;2022-11-06T13:53:37;10.20;99.90
13892;DHT22;7016;48.172;8.058;2022-11-06T13:56:43;10.20;99.90
13892;DHT22;7016;48.172;8.058;2022-11-06T14:05:13;10.10;99.90
13892;DHT22;7016;48.172;8.058;2022-11-06T14:07:42;10.00;99.90
13892;DHT22;7016;48.172;8.058;2022-11-06T14:10:20;9.90;99.90
13892;DHT22;7016;48.172;8.058;2022-11-06T14:12:46;9.80;99.90
13892;DHT22;7016;48.172;8.058;2022-11-06T14:17:59;9.80;99.90
13892;DHT22;7016;48.172;8.058;2022-11-06T14:20:36;9.70;99.90
13892;DHT22;7016;48.172;8.058;2022-11-06T14:26:08;9.60;99.90
13892;DHT22;7016;48.172;8.058;2022-11-06T14:28:39;9.60;99.90
13892;DHT22;7016;48.172;8.058;2022-11-06T14:31:06;9.60;99.90
13892;DHT22;7016;48.172;8.058;2022-11-06T14:38:49;9.80;99.90
13892;DHT22;7016;48.172;8.058;2022-11-06T14:44:02;10.00;99.90
13892;DHT22;7016;48.172;8.058;2022-11-06T14:46:29;10.00;99.90
13892;DHT22;7016;48.172;8.058;2022-11-06T14:49:07;10.00;99.90
13892;DHT22;7016;48.172;8.058;2022-11-06T14:51:34;10.00;99.90
13892;DHT22;7016;48.172;8.058;2022-11-06T14:54:17;10.00;99.90
13892;DHT22;7016;48.172;8.058;2022-11-06T14:56:51;9.90;99.90
13892;DHT22;7016;48.172;8.058;2022-11-06T14:59:37;9.80;99.90
13892;DHT22;7016;48.172;8.058;2022-11-06T15:02:21;9.90;99.90
13892;DHT22;7016;48.172;8.058;2022-11-06T15:04:59;9.90;99.90
13892;DHT22;7016;48.172;8.058;2022-11-06T15:10:00;10.00;99.90
13892;DHT22;7016;48.172;8.058;2022-11-06T15:15:30;10.10;99.90
13892;DHT22;7016;48.172;8.058;2022-11-06T15:17:59;10.00;99.90
13892;DHT22;7016;48.172;8.058;2022-11-06T15:20:28;10.00;99.90
13892;DHT22;7016;48.172;8.058;2022-11-06T15:23:14;10.00;99.90
13892;DHT22;7016;48.172;8.058;2022-11-06T15:26:32;10.10;99.90
13892;DHT22;7016;48.172;8.058;2022-11-06T15:28:46;10.00;99.90
13892;DHT22;7016;48.172;8.058;2022-11-06T15:31:16;10.00;99.90
13892;DHT22;7016;48.172;8.058;2022-11-06T15:34:04;10.00;99.90
13892;DHT22;7016;48.172;8.058;2022-11-06T15:36:37;10.00;99.90
13892;DHT22;7016;48.172;8.058;2022-11-06T15:41:51;9.90;99.90
13892;DHT22;7016;48.172;8.058;2022-11-06T15:44:22;9.90;99.90
13892;DHT22;7016;48.172;8.058;2022-11-06T15:46:56;10.00;99.90
13892;DHT22;7016;48.172;8.058;2022-11-06T15:49:23;9.90;99.90
13892;DHT22;7016;48.172;8.058;2022-11-06T15:51:58;9.90;99.90
13892;DHT22;7016;48.172;8.058;2022-11-06T15:54:41;9.80;99.90
13892;DHT22;7016;48.172;8.058;2022-11-06T15:59:33;9.80;99.90
13892;DHT22;7016;48.172;8.058;2022-11-06T16:02:03;9.70;99.90
13892;DHT22;7016;48.172;8.058;2022-11-06T16:04:30;9.80;99.90
13892;DHT22;7016;48.172;8.058;2022-11-06T16:06:59;9.80;99.90
13892;DHT22;7016;48.172;8.058;2022-11-06T16:09:25;9.80;99.90
13892;DHT22;7016;48.172;8.058;2022-11-06T16:11:51;9.80;99.90
13892;DHT22;7016;48.172;8.058;2022-11-06T16:14:18;9.80;99.90
13892;DHT22;7016;48.172;8.058;2022-11-06T16:16:55;9.80;99.90
13892;DHT22;7016;48.172;8.058;2022-11-06T16:19:33;9.80;99.90
13892;DHT22;7016;48.172;8.058;2022-11-06T16:22:03;9.80;99.90
13892;DHT22;7016;48.172;8.058;2022-11-06T16:24:56;9.80;99.90
13892;DHT22;7016;48.172;8.058;2022-11-06T16:27:23;9.90;99.90
13892;DHT22;7016;48.172;8.058;2022-11-06T16:29:56;9.90;99.90
13892;DHT22;7016;48.172;8.058;2022-11-06T16:32:27;9.90;99.90
13892;DHT22;7016;48.172;8.058;2022-11-06T16:34:54;9.80;99.90
13892;DHT22;7016;48.172;8.058;2022-11-06T16:39:55;9.80;99.90
13892;DHT22;7016;48.172;8.058;2022-11-06T16:42:26;9.80;99.90
13892;DHT22;7016;48.172;8.058;2022-11-06T16:44:59;9.70;99.90
13892;DHT22;7016;48.172;8.058;2022-11-06T16:47:26;9.60;99.90
13892;DHT22;7016;48.172;8.058;2022-11-06T16:49:53;9.70;99.90
13892;DHT22;7016;48.172;8.058;2022-11-06T16:52:29;9.70;99.90
13892;DHT22;7016;48.172;8.058;2022-11-06T16:55:05;9.60;99.90
13892;DHT22;7016;48.172;8.058;2022-11-06T16:57:40;9.50;99.90
13892;DHT22;7016;48.172;8.058;2022-11-06T17:00:22;9.50;99.90
13892;DHT22;7016;48.172;8.058;2022-11-06T17:05:22;9.50;99.90
13892;DHT22;7016;48.172;8.058;2022-11-06T17:10:46;9.50;99.90
13892;DHT22;7016;48.172;8.058;2022-11-06T17:13:35;9.40;99.90
13892;DHT22;7016;48.172;8.058;2022-11-06T17:16:04;9.30;99.90
13892;DHT22;7016;48.172;8.058;2022-11-06T17:18:34;9.30;99.90
13892;DHT22;7016;48.172;8.058;2022-11-06T17:21:03;9.30;99.90
13892;DHT22;7016;48.172;8.058;2022-11-06T17:23:30;9.30;99.90
13892;DHT22;7016;48.172;8.058;2022-11-06T17:26:01;9.30;99.90
13892;DHT22;7016;48.172;8.058;2022-11-06T17:28:28;9.40;99.90
13892;DHT22;7016;48.172;8.058;2022-11-06T17:30:54;9.40;99.90
13892;DHT22;7016;48.172;8.058;2022-11-06T17:33:20;9.40;99.90
13892;DHT22;7016;48.172;8.058;2022-11-06T17:35:47;9.40;99.90
13892;DHT22;7016;48.172;8.058;2022-11-06T17:38:14;9.40;99.90
13892;DHT22;7016;48.172;8.058;2022-11-06T17:40:42;9.40;99.90
13892;DHT22;7016;48.172;8.058;2022-11-06T17:43:08;9.40;99.90
13892;DHT22;7016;48.172;8.058;2022-11-06T17:45:34;9.50;99.90
13892;DHT22;7016;48.172;8.058;2022-11-06T17:48:00;9.40;99.90
13892;DHT22;7016;48.172;8.058;2022-11-06T17:50:25;9.50;99.90
13892;DHT22;7016;48.172;8.058;2022-11-06T17:52:51;9.60;99.90
13892;DHT22;7016;48.172;8.058;2022-11-06T17:55:17;9.60;99.90
13892;DHT22;7016;48.172;8.058;2022-11-06T17:57:43;9.60;99.90
13892;DHT22;7016;48.172;8.058;2022-11-06T18:00:10;9.60;99.90
13892;DHT22;7016;48.172;8.058;2022-11-06T18:02:36;9.70;99.90
13892;DHT22;7016;48.172;8.058;2022-11-06T18:05:02;9.70;99.90
13892;DHT22;7016;48.172;8.058;2022-11-06T18:07:28;9.80;99.90
13892;DHT22;7016;48.172;8.058;2022-11-06T18:09:54;9.90;99.90
13892;DHT22;7016;48.172;8.058;2022-11-06T18:12:20;10.10;99.90
13892;DHT22;7016;48.172;8.058;2022-11-06T18:14:48;10.10;99.90
13892;DHT22;7016;48.172;8.058;2022-11-06T18:17:15;10.20;99.90
13892;DHT22;7016;48.172;8.058;2022-11-06T18:19:41;10.20;99.90
13892;DHT22;7016;48.172;8.058;2022-11-06T18:22:06;10.30;99.90
13892;DHT22;7016;48.172;8.058;2022-11-06T18:24:36;10.20;99.90
13892;DHT22;7016;48.172;8.058;2022-11-06T18:27:02;10.20;99.90
13892;DHT22;7016;48.172;8.058;2022-11-06T18:29:29;10.20;99.90
13892;DHT22;7016;48.172;8.058;2022-11-06T18:31:55;10.30;99.90
13892;DHT22;7016;48.172;8.058;2022-11-06T18:34:20;10.30;99.90
13892;DHT22;7016;48.172;8.058;2022-11-06T18:36:50;10.30;99.90
13892;DHT22;7016;48.172;8.058;2022-11-06T18:39:16;10.40;99.90
13892;DHT22;7016;48.172;8.058;2022-11-06T18:41:42;10.40;99.90
13892;DHT22;7016;48.172;8.058;2022-11-06T18:44:08;10.40;99.90
13892;DHT22;7016;48.172;8.058;2022-11-06T18:46:33;10.50;99.90
13892;DHT22;7016;48.172;8.058;2022-11-06T18:48:59;10.50;99.90
13892;DHT22;7016;48.172;8.058;2022-11-06T18:51:30;10.60;99.90
13892;DHT22;7016;48.172;8.058;2022-11-06T18:54:00;10.60;99.90
13892;DHT22;7016;48.172;8.058;2022-11-06T18:56:26;10.60;99.90
13892;DHT22;7016;48.172;8.058;2022-11-06T18:58:52;10.60;99.90
13892;DHT22;7016;48.172;8.058;2022-11-06T19:01:19;10.50;99.90